createdAt,value
2022-12-23T00:00:40.708Z,46.47
2022-12-23T00:03:07.688Z,46.90
2022-12-23T00:05:39.956Z,47.20
2022-12-23T00:08:07.579Z,48.47
2022-12-23T00:10:37.915Z,53.05
2022-12-23T00:13:23.397Z,52.42
2022-12-23T00:15:50.172Z,61.50
2022-12-23T00:18:16.926Z,66.70
2022-12-23T00:20:43.649Z,63.03
2022-12-23T00:23:10.527Z,63.17
2022-12-23T00:25:42.467Z,61.30
2022-12-23T00:28:16.114Z,61.13
2022-12-23T00:30:54.948Z,55.22
2022-12-23T00:33:24.189Z,56.88
2022-12-23T00:35:52.084Z,52.50
2022-12-23T00:38:39.869Z,50.85
2022-12-23T00:41:29.265Z,51.50
2022-12-23T00:43:56.637Z,47.85
2022-12-23T00:46:24.972Z,47.08
2022-12-23T00:49:10.538Z,42.15
2022-12-23T00:51:37.450Z,48.65
2022-12-23T00:54:04.877Z,47.92
2022-12-23T00:56:32.433Z,45.70
2022-12-23T00:58:59.991Z,51.75
2022-12-23T01:01:46.406Z,50.88
2022-12-23T01:04:33.349Z,50.97
2022-12-23T01:07:00.242Z,50.00
2022-12-23T01:09:27.515Z,51.50
2022-12-23T01:11:54.548Z,50.70
2022-12-23T01:14:21.829Z,50.15
2022-12-23T01:16:48.811Z,49.28
2022-12-23T01:19:15.466Z,51.42
2022-12-23T01:21:42.347Z,45.55
2022-12-23T01:24:09.257Z,46.90
2022-12-23T01:26:36.122Z,44.58
2022-12-23T01:29:03.520Z,44.67
2022-12-23T01:31:30.315Z,45.65
2022-12-23T01:33:57.105Z,45.58
2022-12-23T01:36:24.071Z,46.28
2022-12-23T01:38:51.668Z,49.28
2022-12-23T01:41:46.805Z,51.45
2022-12-23T01:44:53.885Z,51.88
2022-12-23T01:47:20.524Z,55.65
2022-12-23T01:49:49.416Z,54.15
2022-12-23T01:52:16.599Z,55.15
2022-12-23T01:54:44.129Z,55.75
2022-12-23T01:57:11.259Z,52.03
2022-12-23T01:59:56.878Z,53.70
2022-12-23T02:02:42.542Z,51.85
2022-12-23T02:05:09.633Z,50.75
2022-12-23T02:07:55.444Z,52.92
2022-12-23T02:10:26.620Z,52.47
2022-12-23T02:13:14.037Z,54.53
2022-12-23T02:16:10.334Z,55.50
2022-12-23T02:19:01.582Z,54.78
2022-12-23T02:22:12.832Z,52.50
2022-12-23T02:25:03.417Z,57.47
2022-12-23T02:27:47.214Z,58.08
2022-12-23T02:30:57.070Z,58.60
2022-12-23T02:33:40.218Z,57.40
2022-12-23T02:36:07.062Z,57.00
2022-12-23T02:38:54.276Z,58.20
2022-12-23T02:41:30.470Z,51.28
2022-12-23T02:44:02.750Z,47.85
2022-12-23T02:46:37.045Z,48.40
2022-12-23T02:49:08.177Z,45.72
2022-12-23T02:51:40.529Z,43.60
2022-12-23T02:54:12.349Z,47.17
2022-12-23T02:56:46.225Z,46.10
2022-12-23T02:59:21.401Z,45.72
2022-12-23T03:01:49.703Z,44.85
2022-12-23T03:04:16.468Z,41.60
2022-12-23T03:06:50.040Z,41.67
2022-12-23T03:09:51.811Z,39.75
2022-12-23T03:12:35.072Z,42.00
2022-12-23T03:15:19.560Z,40.65
2022-12-23T03:21:03.500Z,45.75
2022-12-23T03:23:32.912Z,47.95
2022-12-23T03:26:14.582Z,55.30
2022-12-23T03:28:45.278Z,48.17
2022-12-23T03:31:18.460Z,48.95
2022-12-23T03:33:48.746Z,50.77
2022-12-23T03:36:38.573Z,59.97
2022-12-23T03:39:09.937Z,59.90
2022-12-23T03:41:42.477Z,59.78
2022-12-23T03:44:13.988Z,63.20
2022-12-23T03:46:47.479Z,60.08
2022-12-23T03:49:20.593Z,60.15
2022-12-23T03:51:59.363Z,54.53
2022-12-23T03:54:32.105Z,51.83
2022-12-23T03:57:03.544Z,51.50
2022-12-23T03:59:44.116Z,50.58
2022-12-23T04:02:40.869Z,50.33
2022-12-23T04:05:37.929Z,51.65
2022-12-23T04:08:10.627Z,44.13
2022-12-23T04:10:37.747Z,43.13
2022-12-23T04:13:04.882Z,42.67
2022-12-23T04:15:31.960Z,57.40
2022-12-23T04:17:58.736Z,42.35
2022-12-23T04:20:26.132Z,39.25
2022-12-23T04:22:52.847Z,45.92
2022-12-23T04:25:19.471Z,47.75
2022-12-23T04:27:46.348Z,41.10
2022-12-23T04:30:16.539Z,41.72
2022-12-23T04:32:43.434Z,41.80
2022-12-23T04:35:11.720Z,37.20
2022-12-23T04:37:38.911Z,39.50
2022-12-23T04:40:06.898Z,39.65
2022-12-23T04:42:34.033Z,39.85
2022-12-23T04:45:00.728Z,37.75
2022-12-23T04:47:27.733Z,37.17
2022-12-23T04:49:54.468Z,38.78
2022-12-23T04:52:21.232Z,36.33
2022-12-23T04:54:47.924Z,43.83
2022-12-23T04:57:15.960Z,36.22
2022-12-23T04:59:42.620Z,35.78
2022-12-23T05:02:09.579Z,35.03
2022-12-23T05:04:36.466Z,36.97
2022-12-23T05:07:03.301Z,41.22
2022-12-23T05:09:29.889Z,37.17
2022-12-23T05:11:56.777Z,35.13
2022-12-23T05:14:23.391Z,38.85
2022-12-23T05:16:50.087Z,36.45
2022-12-23T05:19:17.209Z,36.78
2022-12-23T05:21:43.905Z,36.33
2022-12-23T05:24:10.722Z,37.40
2022-12-23T05:26:37.575Z,42.67
2022-12-23T05:29:04.700Z,38.78
2022-12-23T05:31:31.354Z,40.15
2022-12-23T05:34:05.734Z,39.92
2022-12-23T05:36:33.590Z,38.85
2022-12-23T05:39:00.370Z,40.00
2022-12-23T05:41:27.207Z,40.92
2022-12-23T05:43:53.884Z,38.35
2022-12-23T05:46:26.134Z,39.97
2022-12-23T05:48:53.487Z,38.13
2022-12-23T05:51:20.121Z,37.22
2022-12-23T05:53:46.901Z,37.13
2022-12-23T05:56:13.623Z,41.42
2022-12-23T05:58:40.243Z,37.78
2022-12-23T06:01:07.922Z,39.40
2022-12-23T06:03:34.893Z,41.80
2022-12-23T06:06:01.786Z,40.97
2022-12-23T06:08:28.775Z,41.85
2022-12-23T06:10:55.542Z,41.00
2022-12-23T06:13:22.112Z,51.10
2022-12-23T06:15:49.172Z,50.65
2022-12-23T06:18:15.807Z,51.00
2022-12-23T06:20:46.703Z,53.60
2022-12-23T06:23:13.857Z,50.70
2022-12-23T06:25:40.516Z,47.13
2022-12-23T06:28:08.103Z,46.60
2022-12-23T06:30:35.336Z,43.97
2022-12-23T06:33:01.962Z,44.40
2022-12-23T06:35:28.754Z,41.92
2022-12-23T06:37:55.607Z,41.28
2022-12-23T06:40:22.421Z,42.97
2022-12-23T06:42:48.999Z,39.33
2022-12-23T06:45:16.136Z,38.88
2022-12-23T06:47:42.746Z,43.72
2022-12-23T06:50:09.726Z,40.53
2022-12-23T06:52:36.837Z,42.13
2022-12-23T06:55:03.591Z,45.80
2022-12-23T06:57:30.151Z,52.65
2022-12-23T06:59:57.276Z,54.90
2022-12-23T07:02:23.988Z,55.03
2022-12-23T07:04:50.647Z,54.15
2022-12-23T07:07:17.536Z,54.60
2022-12-23T07:09:44.417Z,54.80
2022-12-23T07:12:11.029Z,56.90
2022-12-23T07:14:38.061Z,54.35
2022-12-23T07:17:04.762Z,56.42
2022-12-23T07:19:31.359Z,53.40
2022-12-23T07:21:58.516Z,50.65
2022-12-23T07:24:25.247Z,48.53
2022-12-23T07:26:52.368Z,49.55
2022-12-23T07:29:19.235Z,51.92
2022-12-23T07:31:46.092Z,53.83
2022-12-23T07:34:12.711Z,53.63
2022-12-23T07:36:40.027Z,50.92
2022-12-23T07:39:06.789Z,52.70
2022-12-23T07:41:38.448Z,64.88
2022-12-23T07:44:05.396Z,76.38
2022-12-23T07:46:32.073Z,82.63
2022-12-23T07:48:58.756Z,81.32
2022-12-23T07:51:25.737Z,76.22
2022-12-23T07:53:52.494Z,71.65
2022-12-23T07:56:19.341Z,67.50
2022-12-23T07:58:50.807Z,67.83
2022-12-23T08:01:18.646Z,64.43
2022-12-23T08:03:45.766Z,54.13
2022-12-23T08:06:14.087Z,48.97
2022-12-23T08:08:43.231Z,43.92
2022-12-23T08:11:11.839Z,45.70
2022-12-23T08:13:40.986Z,61.50
2022-12-23T08:16:08.717Z,66.78
2022-12-23T08:18:38.052Z,58.33
2022-12-23T08:21:11.079Z,51.92
2022-12-23T08:23:37.743Z,50.50
2022-12-23T08:26:13.703Z,49.80
2022-12-23T08:28:41.660Z,48.95
2022-12-23T08:31:15.827Z,46.20
2022-12-23T08:33:45.037Z,47.20
2022-12-23T08:36:22.502Z,46.95
2022-12-23T08:38:56.105Z,48.17
2022-12-23T08:41:26.029Z,50.95
2022-12-23T08:43:53.715Z,51.40
2022-12-23T08:46:20.639Z,50.40
2022-12-23T08:48:49.634Z,53.45
2022-12-23T08:51:18.215Z,46.63
2022-12-23T08:53:45.250Z,68.75
2022-12-23T08:56:15.903Z,82.95
2022-12-23T08:58:48.231Z,86.88
2022-12-23T09:01:17.308Z,91.90
2022-12-23T09:03:45.070Z,97.22
2022-12-23T09:06:26.555Z,96.28
2022-12-23T09:08:55.908Z,96.83
2022-12-23T09:11:25.357Z,91.85
2022-12-23T09:13:52.033Z,86.68
2022-12-23T09:16:19.124Z,84.00
2022-12-23T09:18:46.064Z,81.45
2022-12-23T09:21:15.804Z,84.40
2022-12-23T09:23:43.183Z,74.00
2022-12-23T09:26:11.183Z,60.45
2022-12-23T09:28:39.780Z,54.17
2022-12-23T09:31:11.965Z,49.88
2022-12-23T09:33:39.432Z,55.67
2022-12-23T09:36:06.841Z,59.53
2022-12-23T09:38:34.307Z,63.90
2022-12-23T09:41:21.267Z,68.80
2022-12-23T09:44:19.075Z,63.05
2022-12-23T09:46:51.625Z,64.30
2022-12-23T09:49:19.297Z,58.55
2022-12-23T09:51:48.545Z,61.42
2022-12-23T09:54:23.680Z,56.50
2022-12-23T09:57:00.545Z,54.53
2022-12-23T09:59:53.715Z,48.80
2022-12-23T10:02:45.246Z,47.33
2022-12-23T10:05:21.909Z,49.78
2022-12-23T10:07:55.994Z,49.25
2022-12-23T10:13:30.528Z,54.97
2022-12-23T10:16:05.664Z,54.90
2022-12-23T10:18:56.376Z,52.78
2022-12-23T10:21:46.919Z,51.25
2022-12-23T10:24:24.219Z,50.17
2022-12-23T10:26:54.181Z,49.80
2022-12-23T10:29:23.972Z,54.80
2022-12-23T10:31:57.963Z,51.35
2022-12-23T10:34:47.398Z,48.45
2022-12-23T10:37:20.923Z,51.72
2022-12-23T10:39:47.612Z,51.03
2022-12-23T10:42:28.926Z,44.97
2022-12-23T10:45:28.859Z,45.40
2022-12-23T10:48:17.041Z,49.72
2022-12-23T10:50:49.736Z,51.88
2022-12-23T10:53:41.411Z,49.92
2022-12-23T10:56:08.665Z,51.00
2022-12-23T10:58:40.968Z,47.40
2022-12-23T11:01:16.172Z,46.88
2022-12-23T11:04:15.422Z,47.85
2022-12-23T11:06:46.496Z,48.67
2022-12-23T11:10:02.460Z,49.22
2022-12-23T11:12:44.354Z,49.22
2022-12-23T11:15:38.750Z,47.78
2022-12-23T11:18:07.433Z,42.38
2022-12-23T11:20:36.187Z,48.78
2022-12-23T11:23:04.560Z,55.72
2022-12-23T11:25:41.271Z,55.88
2022-12-23T11:28:12.247Z,59.42
2022-12-23T11:30:56.753Z,60.95
2022-12-23T11:33:30.299Z,56.90
2022-12-23T11:36:20.079Z,56.60
2022-12-23T11:38:52.592Z,57.85
2022-12-23T11:41:26.286Z,57.00
2022-12-23T11:44:10.152Z,55.47
2022-12-23T11:46:37.780Z,54.00
2022-12-23T11:49:12.849Z,53.28
2022-12-23T11:51:39.929Z,52.00
2022-12-23T11:54:06.577Z,51.17
2022-12-23T11:56:42.012Z,46.35
2022-12-23T11:59:27.108Z,39.70
2022-12-23T12:01:56.948Z,41.30
2022-12-23T12:04:25.749Z,35.58
2022-12-23T12:06:56.693Z,36.25
2022-12-23T12:09:25.641Z,37.20
2022-12-23T12:11:58.354Z,33.30
2022-12-23T12:14:34.220Z,36.25
2022-12-23T12:17:05.811Z,37.38
2022-12-23T12:19:40.742Z,39.30
2022-12-23T12:22:14.760Z,42.10
2022-12-23T12:24:56.334Z,45.20
2022-12-23T12:27:34.608Z,57.63
2022-12-23T12:30:08.867Z,59.55
2022-12-23T12:32:47.484Z,43.17
2022-12-23T12:35:23.341Z,42.47
2022-12-23T12:37:59.485Z,41.53
2022-12-23T12:40:35.495Z,43.55
2022-12-23T12:43:16.247Z,43.88
2022-12-23T12:46:16.540Z,41.63
2022-12-23T12:49:11.312Z,40.40
2022-12-23T12:51:41.783Z,43.05
2022-12-23T12:54:17.907Z,42.83
2022-12-23T12:56:48.200Z,42.10
2022-12-23T12:59:20.472Z,43.45
2022-12-23T13:02:01.010Z,40.28
2022-12-23T13:04:39.607Z,39.15
2022-12-23T13:07:15.943Z,38.50
2022-12-23T13:09:51.443Z,41.25
2022-12-23T13:12:52.713Z,39.28
2022-12-23T13:15:30.352Z,39.05
2022-12-23T13:18:03.415Z,36.08
2022-12-23T13:20:42.859Z,36.20
2022-12-23T13:23:44.438Z,36.65
2022-12-23T13:26:25.563Z,36.47
2022-12-23T13:29:17.715Z,36.15
2022-12-23T13:32:06.033Z,34.17
2022-12-23T13:34:52.341Z,35.13
2022-12-23T13:37:44.045Z,36.42
2022-12-23T13:40:29.725Z,34.80
2022-12-23T13:43:04.489Z,36.95
2022-12-23T13:45:38.790Z,36.85
2022-12-23T13:48:38.735Z,33.55
2022-12-23T13:51:13.639Z,33.90
2022-12-23T13:53:47.727Z,33.70
2022-12-23T13:56:24.178Z,31.40
2022-12-23T13:58:51.849Z,32.88
2022-12-23T14:01:18.654Z,33.83
2022-12-23T14:03:48.827Z,31.45
2022-12-23T14:06:24.884Z,32.13
2022-12-23T14:08:54.912Z,31.98
2022-12-23T14:11:24.391Z,32.35
2022-12-23T14:13:51.004Z,30.08
2022-12-23T14:17:00.833Z,31.85
2022-12-23T14:19:52.948Z,31.55
2022-12-23T14:22:37.705Z,32.85
2022-12-23T14:25:38.712Z,36.35
2022-12-23T14:28:08.596Z,35.17
2022-12-23T14:30:42.845Z,32.28
2022-12-23T14:33:18.723Z,30.42
2022-12-23T14:35:45.507Z,30.88
2022-12-23T14:38:14.804Z,32.50
2022-12-23T14:41:19.214Z,31.42
2022-12-23T14:43:45.775Z,31.63
2022-12-23T14:46:35.445Z,31.38
2022-12-23T14:49:37.024Z,30.20
2022-12-23T14:51:53.164Z,30.60
2022-12-23T14:54:31.486Z,29.63
2022-12-23T14:57:08.155Z,29.42
2022-12-23T14:59:58.146Z,45.75
2022-12-23T15:02:33.886Z,48.85
2022-12-23T15:05:01.556Z,42.90
2022-12-23T15:07:35.875Z,41.78
2022-12-23T15:10:06.221Z,41.85
2022-12-23T15:12:37.893Z,41.53
2022-12-23T15:15:07.484Z,37.45
2022-12-23T15:17:36.629Z,34.60
2022-12-23T15:20:15.604Z,37.28
2022-12-23T15:22:44.884Z,33.20
2022-12-23T15:25:25.667Z,33.20
2022-12-23T15:28:01.309Z,35.15
2022-12-23T15:30:31.291Z,33.28
2022-12-23T15:33:16.011Z,32.17
2022-12-23T15:35:52.356Z,29.60
2022-12-23T15:38:21.602Z,29.65
2022-12-23T15:41:03.732Z,28.73
2022-12-23T15:43:31.419Z,29.95
2022-12-23T15:46:32.879Z,29.75
2022-12-23T15:49:00.511Z,29.40
2022-12-23T15:52:05.711Z,32.35
2022-12-23T15:55:04.194Z,34.05
2022-12-23T15:57:31.624Z,33.97
2022-12-23T15:59:59.358Z,45.42
2022-12-23T16:02:59.269Z,56.25
2022-12-23T16:05:31.044Z,47.58
2022-12-23T16:08:11.941Z,64.05
2022-12-23T16:10:40.742Z,88.75
2022-12-23T16:13:20.157Z,107.93
2022-12-23T16:15:47.461Z,62.70
2022-12-23T16:18:22.041Z,40.90
2022-12-23T16:20:51.568Z,36.38
2022-12-23T16:23:18.578Z,38.97
2022-12-23T16:25:51.150Z,40.90
2022-12-23T16:28:32.476Z,30.13
2022-12-23T16:30:59.224Z,29.45
2022-12-23T16:33:50.693Z,29.85
2022-12-23T16:36:26.206Z,29.25
2022-12-23T16:39:34.282Z,33.83
2022-12-23T16:42:00.902Z,33.72
2022-12-23T16:44:27.727Z,34.28
2022-12-23T16:46:54.574Z,38.42
2022-12-23T16:49:27.969Z,40.97
2022-12-23T16:51:56.678Z,33.60
2022-12-23T16:54:23.506Z,37.50
2022-12-23T16:56:50.258Z,44.28
2022-12-23T16:59:17.646Z,46.42
2022-12-23T17:01:49.082Z,49.88
2022-12-23T17:04:15.993Z,47.83
2022-12-23T17:06:43.376Z,35.60
2022-12-23T17:09:10.691Z,28.15
2022-12-23T17:11:41.711Z,26.48
2022-12-23T17:14:16.101Z,23.65
2022-12-23T17:16:43.275Z,25.48
2022-12-23T17:19:10.050Z,24.20
2022-12-23T17:21:38.067Z,24.00
2022-12-23T17:24:09.449Z,26.05
2022-12-23T17:26:36.274Z,22.88
2022-12-23T17:29:05.005Z,25.85
2022-12-23T17:31:33.604Z,31.88
2022-12-23T17:34:00.983Z,36.78
2022-12-23T17:36:28.247Z,39.67
2022-12-23T17:38:55.221Z,39.13
2022-12-23T17:41:31.197Z,27.17
2022-12-23T17:43:58.419Z,29.83
2022-12-23T17:46:25.858Z,64.13
2022-12-23T17:48:53.800Z,32.08
2022-12-23T17:51:22.750Z,37.75
2022-12-23T17:53:57.066Z,26.90
2022-12-23T17:56:26.963Z,34.35
2022-12-23T17:58:53.880Z,26.80
2022-12-23T18:01:29.953Z,22.17
2022-12-23T18:03:58.247Z,23.52
2022-12-23T18:06:27.683Z,22.55
2022-12-23T18:08:54.666Z,24.17
2022-12-23T18:11:41.975Z,22.80
2022-12-23T18:14:17.029Z,65.30
2022-12-23T18:16:43.815Z,53.57
2022-12-23T18:19:18.988Z,49.72
2022-12-23T18:21:46.388Z,48.05
2022-12-23T18:24:13.182Z,52.25
2022-12-23T18:26:40.264Z,47.75
2022-12-23T18:29:06.921Z,49.00
2022-12-23T18:31:33.657Z,45.88
2022-12-23T18:34:00.524Z,51.90
2022-12-23T18:36:31.218Z,43.53
2022-12-23T18:38:58.025Z,41.13
2022-12-23T18:41:25.782Z,40.60
2022-12-23T18:43:53.397Z,31.25
2022-12-23T18:46:20.425Z,26.80
2022-12-23T18:48:47.641Z,30.95
2022-12-23T18:51:18.881Z,43.13
2022-12-23T18:53:47.294Z,64.60
2022-12-23T18:56:15.553Z,50.70
2022-12-23T18:58:43.160Z,40.58
2022-12-23T19:01:17.797Z,31.52
2022-12-23T19:03:44.851Z,33.97
2022-12-23T19:06:14.264Z,45.42
2022-12-23T19:08:42.162Z,42.03
2022-12-23T19:11:14.229Z,38.70
2022-12-23T19:13:41.072Z,36.58
2022-12-23T19:16:08.381Z,39.20
2022-12-23T19:18:35.077Z,32.38
2022-12-23T19:21:04.482Z,28.52
2022-12-23T19:23:31.373Z,25.88
2022-12-23T19:25:57.995Z,25.15
2022-12-23T19:28:24.781Z,25.50
2022-12-23T19:30:51.800Z,25.67
2022-12-23T19:33:18.653Z,28.73
2022-12-23T19:35:45.356Z,22.60
2022-12-23T19:38:12.705Z,22.50
2022-12-23T19:40:39.796Z,23.80
2022-12-23T19:43:06.644Z,26.70
2022-12-23T19:45:33.838Z,27.65
2022-12-23T19:48:00.485Z,25.83
2022-12-23T19:50:27.298Z,26.25
2022-12-23T19:52:56.579Z,26.80
2022-12-23T19:55:23.364Z,28.42
2022-12-23T19:57:50.075Z,25.98
2022-12-23T20:00:17.033Z,24.48
2022-12-23T20:02:43.889Z,25.23
2022-12-23T20:05:10.553Z,25.80
2022-12-23T20:07:38.497Z,50.10
2022-12-23T20:10:06.258Z,55.22
2022-12-23T20:12:33.113Z,70.78
2022-12-23T20:15:00.257Z,81.82
2022-12-23T20:17:27.026Z,64.22
2022-12-23T20:19:53.720Z,59.80
2022-12-23T20:22:20.478Z,56.72
2022-12-23T20:24:47.117Z,49.67
2022-12-23T20:27:15.956Z,44.80
2022-12-23T20:29:43.149Z,37.95
2022-12-23T20:32:10.342Z,35.20
2022-12-23T20:34:40.034Z,33.85
2022-12-23T20:37:07.825Z,29.15
2022-12-23T20:39:35.474Z,30.95
2022-12-23T20:42:03.638Z,26.42
2022-12-23T20:44:35.583Z,27.23
2022-12-23T20:47:06.778Z,22.77
2022-12-23T20:49:33.894Z,22.10
2022-12-23T20:52:00.763Z,20.00
2022-12-23T20:54:32.544Z,20.27
2022-12-23T20:57:00.556Z,21.45
2022-12-23T20:59:27.177Z,20.48
2022-12-23T21:01:53.991Z,20.25
2022-12-23T21:04:21.074Z,20.75
2022-12-23T21:06:47.695Z,19.92
2022-12-23T21:09:15.473Z,20.02
2022-12-23T21:11:44.656Z,23.98
2022-12-23T21:14:11.882Z,27.85
2022-12-23T21:16:39.578Z,26.92
2022-12-23T21:19:08.672Z,25.98
2022-12-23T21:21:35.610Z,23.13
2022-12-23T21:24:04.783Z,22.00
2022-12-23T21:26:33.190Z,22.17
2022-12-23T21:29:02.034Z,20.50
2022-12-23T21:31:30.943Z,21.17
2022-12-23T21:33:58.971Z,33.03
2022-12-23T21:36:29.416Z,32.95
2022-12-23T21:38:56.820Z,30.25
2022-12-23T21:41:29.900Z,31.63
2022-12-23T21:43:57.929Z,33.58
2022-12-23T21:46:25.887Z,34.20
2022-12-23T21:48:53.356Z,31.65
2022-12-23T21:51:39.048Z,32.85
2022-12-23T21:54:07.039Z,31.52
2022-12-23T21:56:33.935Z,31.80
2022-12-23T21:59:03.719Z,30.80
2022-12-23T22:01:31.384Z,33.40
2022-12-23T22:03:58.614Z,34.65
2022-12-23T22:06:28.282Z,31.60
2022-12-23T22:08:56.025Z,25.45
2022-12-23T22:11:26.363Z,22.80
2022-12-23T22:13:53.327Z,24.80
2022-12-23T22:16:22.624Z,26.38
2022-12-23T22:18:51.187Z,24.92
2022-12-23T22:21:23.879Z,21.33
2022-12-23T22:23:52.731Z,21.88
2022-12-23T22:26:25.152Z,22.15
2022-12-23T22:28:54.829Z,23.00
2022-12-23T22:31:38.561Z,22.10
2022-12-23T22:34:06.669Z,21.45
2022-12-23T22:36:33.968Z,21.40
2022-12-23T22:39:01.897Z,28.48
2022-12-23T22:41:30.000Z,37.70
2022-12-23T22:43:58.271Z,33.88
2022-12-23T22:46:26.414Z,27.90
2022-12-23T22:48:54.382Z,29.05
2022-12-23T22:51:23.830Z,27.92
2022-12-23T22:53:50.528Z,23.27
2022-12-23T22:56:18.541Z,20.60
2022-12-23T22:58:45.495Z,21.55
2022-12-23T23:01:21.714Z,21.20
2022-12-23T23:03:51.224Z,20.25
2022-12-23T23:06:18.697Z,20.77
2022-12-23T23:08:45.642Z,21.73
2022-12-23T23:11:12.326Z,20.20
2022-12-23T23:13:39.044Z,20.67
2022-12-23T23:16:06.419Z,21.05
2022-12-23T23:18:33.700Z,20.13
2022-12-23T23:21:00.839Z,19.83
2022-12-23T23:23:27.713Z,20.38
2022-12-23T23:25:54.278Z,19.52
2022-12-23T23:28:21.053Z,20.52
2022-12-23T23:30:48.151Z,20.98
2022-12-23T23:33:14.849Z,22.95
2022-12-23T23:35:41.506Z,21.45
2022-12-23T23:38:09.230Z,19.92
2022-12-23T23:40:38.972Z,20.63
2022-12-23T23:43:05.657Z,20.20
2022-12-23T23:45:32.624Z,20.02
2022-12-23T23:47:59.296Z,19.23
2022-12-23T23:50:25.909Z,18.75
2022-12-23T23:52:52.873Z,18.88
2022-12-23T23:55:19.690Z,17.65
2022-12-23T23:57:46.357Z,20.23
